Time;durP1;ratioP1;P1;durP2;ratioP2;P2;SDS_P1;SDS_P2;PMS_P1;PMS_P2;Temp;Humidity;BMP_temperature;BMP_pressure;BME280_temperature;BME280_humidity;BME280_pressure;Samples;Min_cycle;Max_cycle;Signal;HPM_P1;HPM_P2
2021/09/20 00:00:43;;;;;;;19.13;13.50;;;;;;;;;;5062929;28;20468;-68
2021/09/20 00:03:10;;;;;;;16.80;11.95;;;;;;;;;;5067914;28;20077;-68
2021/09/20 00:05:37;;;;;;;16.45;12.52;;;;;;;;;;5054573;28;20063;-68
2021/09/20 00:08:05;;;;;;;21.67;13.07;;;;;;;;;;5056465;28;20025;-68
2021/09/20 00:10:32;;;;;;;18.75;13.07;;;;;;;;;;5067895;28;20432;-67
2021/09/20 00:12:59;;;;;;;19.63;12.20;;;;;;;;;;5056662;28;20397;-68
2021/09/20 00:15:26;;;;;;;17.23;11.52;;;;;;;;;;5061941;28;20052;-68
2021/09/20 00:17:53;;;;;;;16.55;12.07;;;;;;;;;;5058985;28;20035;-67
2021/09/20 00:20:20;;;;;;;17.33;12.07;;;;;;;;;;5060220;28;20103;-65
2021/09/20 00:22:48;;;;;;;12.82;9.13;;;;;;;;;;5057420;28;20036;-65
2021/09/20 00:25:15;;;;;;;15.50;9.10;;;;;;;;;;5061053;28;20052;-65
2021/09/20 00:27:42;;;;;;;15.98;11.15;;;;;;;;;;5062041;28;20035;-68
2021/09/20 00:30:10;;;;;;;19.50;12.48;;;;;;;;;;5053602;28;20043;-67
2021/09/20 00:32:37;;;;;;;20.40;11.90;;;;;;;;;;5057014;28;20036;-67
2021/09/20 00:35:06;;;;;;;19.27;12.93;;;;;;;;;;5053555;28;20029;-68
2021/09/20 00:37:33;;;;;;;16.77;12.70;;;;;;;;;;5052829;28;20082;-67
2021/09/20 00:40:01;;;;;;;16.73;10.95;;;;;;;;;;5059750;28;20020;-66
2021/09/20 00:42:28;;;;;;;18.27;9.85;;;;;;;;;;5062308;28;20040;-65
2021/09/20 00:44:55;;;;;;;15.35;10.60;;;;;;;;;;5068808;28;20025;-65
2021/09/20 00:47:22;;;;;;;8.45;4.13;;;;;;;;;;5060984;28;20021;-67
2021/09/20 00:49:49;;;;;;;9.00;3.60;;;;;;;;;;5062330;28;20024;-67
2021/09/20 00:52:16;;;;;;;10.55;3.90;;;;;;;;;;5065455;28;20033;-67
2021/09/20 00:54:43;;;;;;;6.13;2.15;;;;;;;;;;5060797;28;20427;-67
2021/09/20 00:57:11;;;;;;;5.85;2.63;;;;;;;;;;5060207;28;20025;-67
2021/09/20 00:59:38;;;;;;;3.92;0.75;;;;;;;;;;5056062;28;20528;-67
2021/09/20 01:02:05;;;;;;;4.28;0.50;;;;;;;;;;5067950;28;20036;-68
2021/09/20 01:04:32;;;;;;;5.30;1.00;;;;;;;;;;5063057;28;20052;-68
2021/09/20 01:07:00;;;;;;;4.10;0.57;;;;;;;;;;5066964;28;20055;-67
2021/09/20 01:09:27;;;;;;;3.22;0.77;;;;;;;;;;5061523;28;20028;-67
2021/09/20 01:11:54;;;;;;;3.67;0.57;;;;;;;;;;5057051;28;20087;-67
2021/09/20 01:14:22;;;;;;;3.65;0.60;;;;;;;;;;5066852;28;20016;-67
2021/09/20 01:16:49;;;;;;;4.68;0.70;;;;;;;;;;5064080;28;20059;-67
2021/09/20 01:19:16;;;;;;;3.47;0.98;;;;;;;;;;5069888;28;20028;-68
2021/09/20 01:21:43;;;;;;;3.85;0.60;;;;;;;;;;5075490;28;20039;-67
2021/09/20 01:24:10;;;;;;;3.38;0.70;;;;;;;;;;5059416;28;20017;-68
2021/09/20 01:26:38;;;;;;;4.38;1.10;;;;;;;;;;5057341;28;20070;-67
2021/09/20 01:29:08;;;;;;;3.63;0.68;;;;;;;;;;5063022;28;20485;-68
2021/09/20 01:31:35;;;;;;;3.40;0.90;;;;;;;;;;5057422;28;20036;-68
2021/09/20 01:34:03;;;;;;;3.97;0.50;;;;;;;;;;5055560;28;20081;-67
2021/09/20 01:36:30;;;;;;;3.38;0.70;;;;;;;;;;5052315;28;20029;-67
2021/09/20 01:38:57;;;;;;;2.47;0.68;;;;;;;;;;5057835;28;20058;-68
2021/09/20 01:41:24;;;;;;;6.15;1.15;;;;;;;;;;5057070;28;20128;-67
2021/09/20 01:43:51;;;;;;;2.90;0.57;;;;;;;;;;5060991;28;20030;-68
2021/09/20 01:46:18;;;;;;;5.40;0.80;;;;;;;;;;5065854;28;20845;-70
2021/09/20 01:48:46;;;;;;;1.80;0.40;;;;;;;;;;5068595;28;20017;-69
2021/09/20 01:51:15;;;;;;;3.30;0.65;;;;;;;;;;5072062;28;20031;-68
2021/09/20 01:53:42;;;;;;;6.45;0.70;;;;;;;;;;5059653;28;20021;-68
2021/09/20 01:56:09;;;;;;;3.67;0.70;;;;;;;;;;5071982;28;20036;-69
2021/09/20 01:58:36;;;;;;;3.13;0.50;;;;;;;;;;5062833;28;20021;-69
2021/09/20 02:01:03;;;;;;;6.78;0.70;;;;;;;;;;5052277;28;20128;-69
2021/09/20 02:03:30;;;;;;;4.13;0.70;;;;;;;;;;5055176;28;20044;-69
2021/09/20 02:05:57;;;;;;;3.85;0.50;;;;;;;;;;5052274;28;20424;-68
2021/09/20 02:08:24;;;;;;;5.90;0.65;;;;;;;;;;5057756;28;20031;-68
2021/09/20 02:10:52;;;;;;;8.07;1.65;;;;;;;;;;5072623;28;20025;-68
2021/09/20 02:13:19;;;;;;;7.65;1.70;;;;;;;;;;5068980;28;20021;-68
2021/09/20 02:15:46;;;;;;;5.78;0.70;;;;;;;;;;5055196;28;20056;-69
2021/09/20 02:18:13;;;;;;;3.67;0.75;;;;;;;;;;5054727;28;20385;-69
2021/09/20 02:20:40;;;;;;;3.05;0.60;;;;;;;;;;5069007;28;20036;-69
2021/09/20 02:23:07;;;;;;;11.77;2.33;;;;;;;;;;5070116;28;20021;-68
2021/09/20 02:25:34;;;;;;;4.82;1.23;;;;;;;;;;5055516;28;20025;-68
2021/09/20 02:28:02;;;;;;;3.75;0.60;;;;;;;;;;5054573;28;20183;-69
2021/09/20 02:30:29;;;;;;;9.65;1.40;;;;;;;;;;5058900;28;20115;-68
2021/09/20 02:32:56;;;;;;;4.05;0.63;;;;;;;;;;5071031;28;20028;-68
2021/09/20 02:35:23;;;;;;;3.50;0.30;;;;;;;;;;5056466;28;20389;-68
2021/09/20 02:37:50;;;;;;;4.63;0.95;;;;;;;;;;5063514;28;20023;-69
2021/09/20 02:40:17;;;;;;;3.38;0.85;;;;;;;;;;5054934;28;20425;-68
2021/09/20 02:42:45;;;;;;;5.15;1.02;;;;;;;;;;5054681;28;20025;-69
2021/09/20 02:45:12;;;;;;;5.65;0.60;;;;;;;;;;5055093;28;20029;-68
2021/09/20 02:47:40;;;;;;;6.72;0.85;;;;;;;;;;5054703;28;20017;-67
2021/09/20 02:50:08;;;;;;;5.07;0.90;;;;;;;;;;5054365;28;20043;-68
2021/09/20 02:52:35;;;;;;;3.60;0.85;;;;;;;;;;5054262;28;20017;-68
2021/09/20 02:55:02;;;;;;;5.35;0.75;;;;;;;;;;5055022;28;20041;-66
2021/09/20 02:57:29;;;;;;;7.32;1.30;;;;;;;;;;5071892;28;20024;-68
2021/09/20 02:59:56;;;;;;;5.57;0.65;;;;;;;;;;5054634;28;20118;-68
2021/09/20 03:02:24;;;;;;;2.53;0.50;;;;;;;;;;5054575;28;20385;-68
2021/09/20 03:04:51;;;;;;;5.68;0.85;;;;;;;;;;5054218;28;20028;-69
2021/09/20 03:07:18;;;;;;;3.55;0.65;;;;;;;;;;5054459;28;21418;-67
2021/09/20 03:09:45;;;;;;;3.42;0.65;;;;;;;;;;5071308;28;20032;-67
2021/09/20 03:12:12;;;;;;;14.30;2.50;;;;;;;;;;5074620;28;20052;-67
2021/09/20 03:14:39;;;;;;;2.28;0.43;;;;;;;;;;5072627;28;20447;-68
2021/09/20 03:17:07;;;;;;;3.60;0.52;;;;;;;;;;5074161;28;20049;-69
2021/09/20 03:19:34;;;;;;;2.80;0.73;;;;;;;;;;5072469;28;20545;-68
2021/09/20 03:22:01;;;;;;;4.28;0.73;;;;;;;;;;5074002;28;20366;-68
2021/09/20 03:24:28;;;;;;;4.20;0.60;;;;;;;;;;5065737;28;20024;-68
2021/09/20 03:26:55;;;;;;;2.72;0.60;;;;;;;;;;5074479;28;20091;-68
2021/09/20 03:29:22;;;;;;;3.17;0.50;;;;;;;;;;5068767;28;20048;-68
2021/09/20 03:31:50;;;;;;;2.83;0.68;;;;;;;;;;5074179;28;20056;-68
2021/09/20 03:34:17;;;;;;;4.40;0.88;;;;;;;;;;5071856;28;20115;-69
2021/09/20 03:36:44;;;;;;;3.70;0.55;;;;;;;;;;5073982;28;20491;-68
2021/09/20 03:39:11;;;;;;;7.40;1.38;;;;;;;;;;5056510;28;20386;-68
2021/09/20 03:41:38;;;;;;;3.42;0.60;;;;;;;;;;5052202;28;20040;-68
2021/09/20 03:44:05;;;;;;;3.05;0.40;;;;;;;;;;5052823;28;20108;-68
2021/09/20 03:46:32;;;;;;;3.85;0.75;;;;;;;;;;5053862;28;20079;-67
2021/09/20 03:49:00;;;;;;;2.72;0.65;;;;;;;;;;5053566;28;20424;-68
2021/09/20 03:51:27;;;;;;;4.32;0.75;;;;;;;;;;5057204;28;20385;-68
2021/09/20 03:53:54;;;;;;;6.20;0.70;;;;;;;;;;5053790;28;20032;-68
2021/09/20 03:56:21;;;;;;;3.63;0.50;;;;;;;;;;5053826;28;20059;-69
2021/09/20 03:58:48;;;;;;;5.38;0.70;;;;;;;;;;5056418;28;20036;-68
2021/09/20 04:01:15;;;;;;;3.55;0.50;;;;;;;;;;5053493;28;20032;-68
2021/09/20 04:03:42;;;;;;;4.85;0.63;;;;;;;;;;5056425;28;20045;-67
2021/09/20 04:06:09;;;;;;;5.00;0.43;;;;;;;;;;5074015;28;20027;-68
2021/09/20 04:08:36;;;;;;;1.98;0.55;;;;;;;;;;5064417;28;20107;-68
2021/09/20 04:11:03;;;;;;;2.90;0.50;;;;;;;;;;5053402;28;20358;-68
2021/09/20 04:13:31;;;;;;;3.63;0.60;;;;;;;;;;5059757;28;20016;-67
2021/09/20 04:15:58;;;;;;;2.35;0.40;;;;;;;;;;5072313;28;20396;-67
2021/09/20 04:18:26;;;;;;;8.00;2.08;;;;;;;;;;5070365;28;20027;-68
2021/09/20 04:20:54;;;;;;;3.50;0.60;;;;;;;;;;5063473;28;20064;-67
2021/09/20 04:23:22;;;;;;;4.63;0.75;;;;;;;;;;5053336;28;20032;-68
2021/09/20 04:25:53;;;;;;;3.35;0.50;;;;;;;;;;5053431;28;20049;-68
2021/09/20 04:28:20;;;;;;;4.90;0.40;;;;;;;;;;5057782;28;20020;-68
2021/09/20 04:30:47;;;;;;;4.85;0.85;;;;;;;;;;5073278;28;20035;-68
2021/09/20 04:33:15;;;;;;;1.85;0.47;;;;;;;;;;5066463;28;20436;-67
2021/09/20 04:35:43;;;;;;;2.67;0.60;;;;;;;;;;5053208;28;20024;-67
2021/09/20 04:38:10;;;;;;;4.28;0.60;;;;;;;;;;5060106;28;20035;-66
2021/09/20 04:40:38;;;;;;;3.72;0.57;;;;;;;;;;5073306;28;20070;-67
2021/09/20 04:43:07;;;;;;;2.22;0.50;;;;;;;;;;5068192;28;20065;-67
2021/09/20 04:45:35;;;;;;;2.45;0.28;;;;;;;;;;5071423;28;20074;-66
2021/09/20 04:48:03;;;;;;;5.60;0.50;;;;;;;;;;5068421;28;20056;-67
2021/09/20 04:50:30;;;;;;;4.47;0.70;;;;;;;;;;5053780;28;20021;-68
2021/09/20 04:52:57;;;;;;;2.60;0.57;;;;;;;;;;5055252;28;20032;-67
2021/09/20 04:55:24;;;;;;;5.10;0.65;;;;;;;;;;5074641;28;20108;-67
2021/09/20 04:57:51;;;;;;;4.13;0.80;;;;;;;;;;5068683;28;20021;-68
2021/09/20 05:00:18;;;;;;;4.03;0.95;;;;;;;;;;5060378;28;20040;-67
2021/09/20 05:02:45;;;;;;;2.70;0.57;;;;;;;;;;5069363;28;20025;-69
2021/09/20 05:05:13;;;;;;;3.08;0.85;;;;;;;;;;5053663;28;20021;-68
2021/09/20 05:07:40;;;;;;;1.95;0.55;;;;;;;;;;5051668;28;20025;-67
2021/09/20 05:10:08;;;;;;;4.80;0.70;;;;;;;;;;5053419;28;20025;-67
2021/09/20 05:12:35;;;;;;;3.20;0.60;;;;;;;;;;5052682;28;20021;-67
2021/09/20 05:15:02;;;;;;;4.55;0.80;;;;;;;;;;5052506;28;20533;-67
2021/09/20 05:17:29;;;;;;;3.83;0.85;;;;;;;;;;5052020;28;20077;-69
2021/09/20 05:19:56;;;;;;;3.60;0.85;;;;;;;;;;5051996;28;20487;-68
2021/09/20 05:22:23;;;;;;;2.97;0.50;;;;;;;;;;5053118;28;20079;-68
2021/09/20 05:24:50;;;;;;;2.55;0.50;;;;;;;;;;5052756;28;20067;-68
2021/09/20 05:27:18;;;;;;;3.13;0.77;;;;;;;;;;5052887;28;20013;-68
2021/09/20 05:29:45;;;;;;;4.32;0.65;;;;;;;;;;5069780;28;20484;-69
2021/09/20 05:32:12;;;;;;;3.22;0.70;;;;;;;;;;5073007;28;20078;-68
2021/09/20 05:34:39;;;;;;;4.80;0.70;;;;;;;;;;5059071;28;20508;-69
2021/09/20 05:37:06;;;;;;;2.38;0.40;;;;;;;;;;5052900;28;20091;-68
2021/09/20 05:39:33;;;;;;;6.03;0.80;;;;;;;;;;5054446;28;20028;-68
2021/09/20 05:42:01;;;;;;;2.88;0.60;;;;;;;;;;5052568;28;20430;-69
2021/09/20 05:44:28;;;;;;;5.57;0.73;;;;;;;;;;5052541;28;20032;-69
2021/09/20 05:46:55;;;;;;;3.22;0.60;;;;;;;;;;5055115;28;20017;-69
2021/09/20 05:49:22;;;;;;;4.75;0.73;;;;;;;;;;5052952;28;20033;-68
2021/09/20 05:51:49;;;;;;;2.13;0.85;;;;;;;;;;5060116;28;20108;-67
2021/09/20 05:54:17;;;;;;;4.78;1.35;;;;;;;;;;5057558;28;20515;-67
2021/09/20 05:56:44;;;;;;;1.58;0.50;;;;;;;;;;5060830;28;20031;-67
2021/09/20 05:59:11;;;;;;;4.68;0.82;;;;;;;;;;5061371;28;20090;-66
2021/09/20 06:01:38;;;;;;;4.30;0.60;;;;;;;;;;5062124;28;20029;-68
2021/09/20 06:04:05;;;;;;;3.75;0.65;;;;;;;;;;5058949;28;20027;-66
2021/09/20 06:06:32;;;;;;;4.05;0.60;;;;;;;;;;5062619;28;20021;-65
2021/09/20 06:08:59;;;;;;;3.70;0.65;;;;;;;;;;5055315;28;20021;-66
2021/09/20 06:11:27;;;;;;;4.07;0.60;;;;;;;;;;5058839;28;20024;-68
2021/09/20 06:13:55;;;;;;;5.03;0.75;;;;;;;;;;5057429;28;20052;-67
2021/09/20 06:16:23;;;;;;;4.35;0.80;;;;;;;;;;5057086;28;20449;-67
2021/09/20 06:18:50;;;;;;;2.72;0.80;;;;;;;;;;5058740;28;20033;-67
2021/09/20 06:21:17;;;;;;;2.97;0.73;;;;;;;;;;5059183;28;20102;-66
2021/09/20 06:23:44;;;;;;;3.10;0.68;;;;;;;;;;5057280;28;20025;-69
2021/09/20 06:26:26;;;;;;;6.22;1.05;;;;;;;;;;5053946;28;20065;-69
2021/09/20 06:28:53;;;;;;;4.90;0.88;;;;;;;;;;5060425;28;20107;-70
2021/09/20 06:31:21;;;;;;;5.68;0.90;;;;;;;;;;5056764;28;20025;-68
2021/09/20 06:33:49;;;;;;;2.13;0.50;;;;;;;;;;5057495;28;20025;-68
2021/09/20 06:36:16;;;;;;;3.53;0.70;;;;;;;;;;5057083;28;20017;-69
2021/09/20 06:38:43;;;;;;;5.07;0.65;;;;;;;;;;5054601;28;20915;-69
2021/09/20 06:41:10;;;;;;;3.03;0.57;;;;;;;;;;5061838;28;20037;-69
2021/09/20 06:43:38;;;;;;;4.68;0.73;;;;;;;;;;5062050;28;20023;-69
2021/09/20 06:46:05;;;;;;;2.92;0.65;;;;;;;;;;5058273;28;20081;-67
2021/09/20 06:48:32;;;;;;;4.57;1.00;;;;;;;;;;5056468;28;20021;-69
2021/09/20 06:50:59;;;;;;;4.35;1.13;;;;;;;;;;5055289;28;20164;-68
2021/09/20 06:53:26;;;;;;;4.90;0.90;;;;;;;;;;5060820;28;20335;-68
2021/09/20 06:55:54;;;;;;;3.38;1.05;;;;;;;;;;5064472;28;20058;-68
2021/09/20 06:58:21;;;;;;;2.05;0.50;;;;;;;;;;5073970;28;20019;-68
2021/09/20 07:00:48;;;;;;;4.28;1.30;;;;;;;;;;5064533;28;20044;-68
2021/09/20 07:03:15;;;;;;;5.90;0.80;;;;;;;;;;5062006;28;20500;-68
2021/09/20 07:05:43;;;;;;;4.50;0.88;;;;;;;;;;5055500;28;20533;-68
2021/09/20 07:08:10;;;;;;;4.57;0.85;;;;;;;;;;5056469;28;20032;-68
2021/09/20 07:10:37;;;;;;;4.32;1.05;;;;;;;;;;5058704;28;20056;-68
2021/09/20 07:13:09;;;;;;;1.38;0.52;;;;;;;;;;5059595;28;20087;-67
2021/09/20 07:15:37;;;;;;;2.88;0.82;;;;;;;;;;5056321;28;20129;-68
2021/09/20 07:18:07;;;;;;;2.45;0.65;;;;;;;;;;5057486;28;20028;-67
2021/09/20 07:20:34;;;;;;;3.30;0.90;;;;;;;;;;5060396;28;20398;-67
2021/09/20 07:23:02;;;;;;;2.45;0.43;;;;;;;;;;5060981;28;20024;-68
2021/09/20 07:25:29;;;;;;;3.83;0.80;;;;;;;;;;5055252;28;20369;-68
2021/09/20 07:27:56;;;;;;;1.73;0.60;;;;;;;;;;5059344;28;20106;-67
2021/09/20 07:30:23;;;;;;;3.85;0.70;;;;;;;;;;5059719;28;20385;-68
2021/09/20 07:32:52;;;;;;;1.70;0.80;;;;;;;;;;5071738;28;20025;-67
2021/09/20 07:35:19;;;;;;;5.15;0.85;;;;;;;;;;5067305;28;20111;-67
2021/09/20 07:37:48;;;;;;;1.73;0.60;;;;;;;;;;5062381;28;20167;-67
2021/09/20 07:40:15;;;;;;;3.45;0.90;;;;;;;;;;5060992;28;20106;-67
2021/09/20 07:42:42;;;;;;;2.13;0.50;;;;;;;;;;5058245;28;20104;-68
2021/09/20 07:45:10;;;;;;;5.85;0.77;;;;;;;;;;5058973;28;20479;-68
2021/09/20 07:47:38;;;;;;;5.28;0.80;;;;;;;;;;5066318;28;20025;-67
2021/09/20 07:50:06;;;;;;;3.45;0.60;;;;;;;;;;5059803;28;20110;-68
2021/09/20 07:52:33;;;;;;;3.72;0.93;;;;;;;;;;5055319;28;20020;-67
2021/09/20 07:55:00;;;;;;;3.22;0.70;;;;;;;;;;5063564;28;20023;-68
2021/09/20 07:57:28;;;;;;;3.90;0.80;;;;;;;;;;5059618;28;20104;-68
2021/09/20 07:59:55;;;;;;;5.95;0.93;;;;;;;;;;5059321;28;20025;-67
2021/09/20 08:02:22;;;;;;;4.53;0.70;;;;;;;;;;5059215;28;20086;-68
2021/09/20 08:04:49;;;;;;;2.67;0.60;;;;;;;;;;5060689;28;20392;-67
2021/09/20 08:07:16;;;;;;;3.08;0.60;;;;;;;;;;5061816;28;20020;-68
2021/09/20 08:09:43;;;;;;;2.60;0.57;;;;;;;;;;5066458;28;20025;-69
2021/09/20 08:12:11;;;;;;;3.83;0.52;;;;;;;;;;5059977;28;20035;-68
2021/09/20 08:14:39;;;;;;;2.80;0.73;;;;;;;;;;5063112;28;20021;-68
2021/09/20 08:17:07;;;;;;;3.63;0.80;;;;;;;;;;5066059;28;20088;-67
2021/09/20 08:19:34;;;;;;;4.60;0.70;;;;;;;;;;5064738;28;20032;-68
2021/09/20 08:22:01;;;;;;;4.50;0.90;;;;;;;;;;5059643;28;20052;-66
2021/09/20 08:24:28;;;;;;;4.57;0.60;;;;;;;;;;5064448;28;20379;-67
2021/09/20 08:26:55;;;;;;;4.65;0.77;;;;;;;;;;5071835;28;20028;-65
2021/09/20 08:29:22;;;;;;;4.05;0.73;;;;;;;;;;5067541;28;20110;-65
2021/09/20 08:31:50;;;;;;;1.67;0.60;;;;;;;;;;5071258;28;20603;-67
2021/09/20 08:34:17;;;;;;;3.95;0.68;;;;;;;;;;5068708;28;20029;-67
2021/09/20 08:36:44;;;;;;;4.78;0.70;;;;;;;;;;5061439;28;20484;-67
2021/09/20 08:39:11;;;;;;;5.30;0.77;;;;;;;;;;5062439;28;20029;-66
2021/09/20 08:41:41;;;;;;;5.80;0.70;;;;;;;;;;5062861;28;20033;-66
2021/09/20 08:44:10;;;;;;;2.42;0.40;;;;;;;;;;5055649;28;20385;-64
2021/09/20 08:46:41;;;;;;;3.72;0.90;;;;;;;;;;5062792;28;20021;-66
2021/09/20 08:49:08;;;;;;;1.80;0.60;;;;;;;;;;5065647;28;20086;-67
2021/09/20 08:51:36;;;;;;;4.53;0.75;;;;;;;;;;5070301;28;20033;-67
2021/09/20 08:54:03;;;;;;;7.35;0.57;;;;;;;;;;5058407;28;20040;-67
2021/09/20 08:56:30;;;;;;;3.53;1.10;;;;;;;;;;5075474;28;20078;-65
2021/09/20 08:58:57;;;;;;;4.72;0.50;;;;;;;;;;5063487;28;20040;-65
2021/09/20 09:01:25;;;;;;;1.10;0.20;;;;;;;;;;5077395;28;20037;-65
2021/09/20 09:03:52;;;;;;;1.63;0.68;;;;;;;;;;5073252;28;20055;-67
2021/09/20 09:06:32;;;;;;;2.47;0.30;;;;;;;;;;5072615;28;20099;-68
2021/09/20 09:08:59;;;;;;;1.75;0.13;;;;;;;;;;5063790;28;20079;-67
2021/09/20 09:11:28;;;;;;;1.30;0.10;;;;;;;;;;5063969;28;20025;-66
2021/09/20 09:13:58;;;;;;;2.05;0.40;;;;;;;;;;5070145;28;20035;-66
2021/09/20 09:16:27;;;;;;;0.30;0.10;;;;;;;;;;5067032;28;20049;-68
2021/09/20 09:19:12;;;;;;;1.00;0.10;;;;;;;;;;5066391;28;20051;-66
2021/09/20 09:21:44;;;;;;;1.30;0.30;;;;;;;;;;5058179;28;20064;-68
2021/09/20 09:24:16;;;;;;;0.40;0.10;;;;;;;;;;5062568;28;20028;-67
2021/09/20 09:27:02;;;;;;;1.80;0.10;;;;;;;;;;5057547;28;20025;-67
2021/09/20 09:29:30;;;;;;;1.10;0.30;;;;;;;;;;5067586;28;20066;-67
2021/09/20 09:31:58;;;;;;;2.03;0.10;;;;;;;;;;5066294;28;20021;-68
2021/09/20 09:34:28;;;;;;;1.77;0.10;;;;;;;;;;5071888;28;20053;-67
2021/09/20 09:37:09;;;;;;;0.32;0.20;;;;;;;;;;5071294;28;20113;-66
2021/09/20 09:39:36;;;;;;;0.47;0.00;;;;;;;;;;5062565;28;20024;-65
2021/09/20 09:42:04;;;;;;;2.17;0.17;;;;;;;;;;5055042;28;20108;-66
2021/09/20 09:44:33;;;;;;;2.60;0.20;;;;;;;;;;5063124;28;20037;-63
2021/09/20 09:47:00;;;;;;;2.42;0.20;;;;;;;;;;5067155;28;20035;-66
2021/09/20 09:49:28;;;;;;;2.17;0.40;;;;;;;;;;5061260;28;20052;-65
2021/09/20 09:52:00;;;;;;;2.80;0.15;;;;;;;;;;5070911;28;20052;-66
2021/09/20 09:54:32;;;;;;;3.10;0.30;;;;;;;;;;5074643;28;20025;-66
2021/09/20 09:57:12;;;;;;;2.08;0.30;;;;;;;;;;5054568;28;20029;-66
2021/09/20 09:59:39;;;;;;;1.25;0.17;;;;;;;;;;5058477;28;20017;-66
2021/09/20 10:02:22;;;;;;;1.75;0.10;;;;;;;;;;5056789;28;20091;-65
2021/09/20 10:04:53;;;;;;;1.75;0.10;;;;;;;;;;5068291;28;20025;-66
2021/09/20 10:07:28;;;;;;;2.30;0.50;;;;;;;;;;5063993;28;20024;-68
2021/09/20 10:09:56;;;;;;;2.75;0.13;;;;;;;;;;5050971;28;20037;-68
2021/09/20 10:12:24;;;;;;;3.65;0.22;;;;;;;;;;5061076;28;20033;-68
2021/09/20 10:14:51;;;;;;;1.00;0.10;;;;;;;;;;5063670;28;20036;-67
2021/09/20 10:17:19;;;;;;;1.95;0.20;;;;;;;;;;5069784;28;20020;-68
2021/09/20 10:19:47;;;;;;;3.20;0.52;;;;;;;;;;5063080;28;20516;-68
2021/09/20 10:22:15;;;;;;;2.00;0.40;;;;;;;;;;5060194;28;20033;-68
2021/09/20 10:24:44;;;;;;;1.63;0.32;;;;;;;;;;5051664;28;20047;-68
2021/09/20 10:27:12;;;;;;;0.80;0.22;;;;;;;;;;5051968;28;20028;-68
2021/09/20 10:29:41;;;;;;;3.00;0.30;;;;;;;;;;5058226;28;20017;-68
2021/09/20 10:32:08;;;;;;;0.43;0.10;;;;;;;;;;5060819;28;20039;-66
2021/09/20 10:34:35;;;;;;;1.17;0.25;;;;;;;;;;5056294;28;20028;-66
2021/09/20 10:37:02;;;;;;;1.60;0.30;;;;;;;;;;5055287;28;20025;-67
2021/09/20 10:39:49;;;;;;;1.70;0.22;;;;;;;;;;5057353;28;20037;-67
2021/09/20 10:42:35;;;;;;;2.05;0.60;;;;;;;;;;5055057;28;20041;-68
2021/09/20 10:45:03;;;;;;;2.95;0.40;;;;;;;;;;5055691;28;20029;-67
2021/09/20 10:47:47;;;;;;;2.17;0.45;;;;;;;;;;5060211;28;20021;-69
2021/09/20 10:50:14;;;;;;;3.28;0.57;;;;;;;;;;5056491;28;20051;-68
2021/09/20 10:53:00;;;;;;;2.15;0.20;;;;;;;;;;5056201;28;20074;-68
2021/09/20 10:55:27;;;;;;;3.08;0.40;;;;;;;;;;5059105;28;20367;-69
2021/09/20 10:58:13;;;;;;;1.42;0.30;;;;;;;;;;5062572;28;20032;-68
2021/09/20 11:00:42;;;;;;;3.40;0.60;;;;;;;;;;5074184;28;20047;-69
2021/09/20 11:03:28;;;;;;;3.95;0.70;;;;;;;;;;5057677;28;20017;-68
2021/09/20 11:06:13;;;;;;;2.50;0.50;;;;;;;;;;5068336;28;20043;-68
2021/09/20 11:08:40;;;;;;;4.07;0.73;;;;;;;;;;5074385;28;20025;-68
2021/09/20 11:11:27;;;;;;;7.40;0.93;;;;;;;;;;5075235;28;20031;-68
2021/09/20 11:14:10;;;;;;;4.70;1.38;;;;;;;;;;5090141;28;20083;-68
2021/09/20 11:16:56;;;;;;;3.67;0.50;;;;;;;;;;5083594;28;20045;-68
2021/09/20 11:19:29;;;;;;;2.20;0.63;;;;;;;;;;5065079;28;20199;-68
2021/09/20 11:22:05;;;;;;;4.85;0.90;;;;;;;;;;5059218;28;20124;-68
2021/09/20 11:24:50;;;;;;;4.25;0.82;;;;;;;;;;5059005;28;20021;-68
2021/09/20 11:27:26;;;;;;;2.72;0.52;;;;;;;;;;5068257;28;20082;-68
2021/09/20 11:29:58;;;;;;;2.80;0.70;;;;;;;;;;5064736;28;20037;-68
2021/09/20 11:32:26;;;;;;;2.97;0.63;;;;;;;;;;5076774;28;20042;-68
2021/09/20 11:34:54;;;;;;;4.30;0.63;;;;;;;;;;5096481;28;20039;-68
2021/09/20 11:37:29;;;;;;;4.70;0.80;;;;;;;;;;5078730;28;20024;-68
2021/09/20 11:39:58;;;;;;;3.65;0.60;;;;;;;;;;5061371;28;20049;-68
2021/09/20 11:42:27;;;;;;;1.73;0.55;;;;;;;;;;5065620;28;20112;-68
2021/09/20 11:44:59;;;;;;;4.85;0.60;;;;;;;;;;5069847;28;20052;-68
2021/09/20 11:47:27;;;;;;;3.35;0.63;;;;;;;;;;5075501;28;20029;-68
2021/09/20 11:50:02;;;;;;;3.17;0.52;;;;;;;;;;5073210;28;20029;-68
2021/09/20 11:52:34;;;;;;;3.20;0.43;;;;;;;;;;5065131;28;20040;-68
2021/09/20 11:55:01;;;;;;;5.85;0.47;;;;;;;;;;5067190;28;20044;-68
2021/09/20 11:57:32;;;;;;;7.03;0.73;;;;;;;;;;5079859;28;20542;-68
2021/09/20 12:00:00;;;;;;;3.97;0.90;;;;;;;;;;5065109;28;20068;-68
2021/09/20 12:02:31;;;;;;;2.63;0.30;;;;;;;;;;5083918;28;20092;-68
2021/09/20 12:04:59;;;;;;;2.88;0.60;;;;;;;;;;5082355;28;20029;-68
2021/09/20 12:07:27;;;;;;;4.70;0.77;;;;;;;;;;5062174;28;20060;-68
2021/09/20 12:09:55;;;;;;;5.15;0.93;;;;;;;;;;5072214;28;20025;-68
2021/09/20 12:12:26;;;;;;;3.03;0.40;;;;;;;;;;5078609;28;20028;-68
2021/09/20 12:15:04;;;;;;;7.38;0.90;;;;;;;;;;5079000;28;20040;-68
2021/09/20 12:17:49;;;;;;;4.22;0.60;;;;;;;;;;5071891;28;20751;-68
2021/09/20 12:20:17;;;;;;;3.67;0.43;;;;;;;;;;5071241;28;20017;-68
2021/09/20 12:22:46;;;;;;;3.85;0.70;;;;;;;;;;5075928;28;20481;-69
2021/09/20 12:25:22;;;;;;;5.88;0.80;;;;;;;;;;5073533;28;20024;-68
2021/09/20 12:27:50;;;;;;;4.07;0.65;;;;;;;;;;5079750;28;20474;-68
2021/09/20 12:30:18;;;;;;;3.63;0.65;;;;;;;;;;5081328;28;20579;-68
2021/09/20 12:32:45;;;;;;;2.55;0.45;;;;;;;;;;5080908;28;20036;-68
2021/09/20 12:35:13;;;;;;;2.10;0.40;;;;;;;;;;5072608;28;20384;-68
2021/09/20 12:37:41;;;;;;;5.30;0.60;;;;;;;;;;5081178;28;20040;-68
2021/09/20 12:40:18;;;;;;;2.88;0.80;;;;;;;;;;5080003;28;20024;-68
2021/09/20 12:43:05;;;;;;;4.00;0.40;;;;;;;;;;5079134;28;20039;-68
2021/09/20 12:45:38;;;;;;;3.25;0.40;;;;;;;;;;5073768;28;20070;-68
2021/09/20 12:48:06;;;;;;;1.92;0.60;;;;;;;;;;5073889;28;20047;-68
2021/09/20 12:50:41;;;;;;;4.70;0.90;;;;;;;;;;5073304;28;20017;-68
2021/09/20 12:53:08;;;;;;;5.07;0.60;;;;;;;;;;5076923;28;20024;-68
2021/09/20 12:55:37;;;;;;;3.75;1.10;;;;;;;;;;5075062;28;20429;-69
2021/09/20 12:58:05;;;;;;;3.00;0.95;;;;;;;;;;5078656;28;20048;-68
2021/09/20 13:00:34;;;;;;;4.57;0.70;;;;;;;;;;5076823;28;20024;-68
2021/09/20 13:03:06;;;;;;;8.45;0.77;;;;;;;;;;5083502;28;20045;-68
2021/09/20 13:05:41;;;;;;;3.53;0.77;;;;;;;;;;5076276;28;20032;-69
2021/09/20 13:08:08;;;;;;;4.47;0.88;;;;;;;;;;5080518;28;20021;-69
2021/09/20 13:10:37;;;;;;;5.57;1.00;;;;;;;;;;5079402;28;20025;-68
2021/09/20 13:13:04;;;;;;;2.75;0.50;;;;;;;;;;5074536;28;20048;-69
2021/09/20 13:15:31;;;;;;;4.35;0.60;;;;;;;;;;5075768;28;20095;-68
2021/09/20 13:17:59;;;;;;;4.43;0.55;;;;;;;;;;5077492;28;20012;-68
2021/09/20 13:20:28;;;;;;;4.25;0.60;;;;;;;;;;5081820;28;20035;-68
2021/09/20 13:22:57;;;;;;;4.13;0.57;;;;;;;;;;5079103;28;20104;-68
2021/09/20 13:25:26;;;;;;;2.65;0.40;;;;;;;;;;5079532;28;20021;-69
2021/09/20 13:28:01;;;;;;;5.93;1.52;;;;;;;;;;5071795;28;20081;-68
2021/09/20 13:30:28;;;;;;;3.25;0.60;;;;;;;;;;5071953;28;20108;-69
2021/09/20 13:32:55;;;;;;;3.08;0.75;;;;;;;;;;5074366;28;20514;-68
2021/09/20 13:35:23;;;;;;;5.72;1.10;;;;;;;;;;5079546;28;20072;-68
2021/09/20 13:37:51;;;;;;;3.80;0.68;;;;;;;;;;5077436;28;20078;-68
2021/09/20 13:40:18;;;;;;;5.20;0.60;;;;;;;;;;5076062;28;20028;-68
2021/09/20 13:42:46;;;;;;;7.40;0.90;;;;;;;;;;5085551;28;20077;-68
2021/09/20 13:45:14;;;;;;;4.53;0.70;;;;;;;;;;5074719;28;20025;-68
2021/09/20 13:47:41;;;;;;;3.30;0.65;;;;;;;;;;5076041;28;20804;-68
2021/09/20 13:50:09;;;;;;;7.40;0.98;;;;;;;;;;5076689;28;20032;-69
2021/09/20 13:52:36;;;;;;;4.43;0.60;;;;;;;;;;5078136;28;20032;-68
2021/09/20 13:55:04;;;;;;;4.03;0.80;;;;;;;;;;5076202;28;20441;-68
2021/09/20 13:57:31;;;;;;;4.88;0.60;;;;;;;;;;5075833;28;20017;-68
2021/09/20 13:59:58;;;;;;;1.70;0.50;;;;;;;;;;5076839;28;20025;-69
2021/09/20 14:02:26;;;;;;;5.30;0.55;;;;;;;;;;5076768;28;20029;-68
2021/09/20 14:04:53;;;;;;;4.85;0.50;;;;;;;;;;5079886;28;20013;-68
2021/09/20 14:07:21;;;;;;;4.13;0.60;;;;;;;;;;5081522;28;20009;-68
2021/09/20 14:09:49;;;;;;;4.28;0.60;;;;;;;;;;5082034;28;20020;-68
2021/09/20 14:12:16;;;;;;;4.10;0.57;;;;;;;;;;5087167;28;20032;-68
2021/09/20 14:14:43;;;;;;;3.83;0.40;;;;;;;;;;5075070;28;20029;-68
2021/09/20 14:17:10;;;;;;;3.22;0.50;;;;;;;;;;5077600;28;20052;-68
2021/09/20 14:19:38;;;;;;;1.80;0.47;;;;;;;;;;5087363;28;20020;-69
2021/09/20 14:22:09;;;;;;;3.88;0.70;;;;;;;;;;5077976;28;20044;-68
2021/09/20 14:24:37;;;;;;;4.72;0.70;;;;;;;;;;5076942;28;20025;-69
2021/09/20 14:27:05;;;;;;;4.78;0.50;;;;;;;;;;5077413;28;20044;-68
2021/09/20 14:29:33;;;;;;;4.05;0.80;;;;;;;;;;5080107;28;20472;-68
2021/09/20 14:32:00;;;;;;;5.60;1.42;;;;;;;;;;5076824;28;20027;-68
2021/09/20 14:34:28;;;;;;;5.47;0.57;;;;;;;;;;5085293;28;20016;-68
2021/09/20 14:36:55;;;;;;;4.15;0.77;;;;;;;;;;5084561;28;20093;-68
2021/09/20 14:39:22;;;;;;;4.68;0.93;;;;;;;;;;5074666;28;20075;-68
2021/09/20 14:41:50;;;;;;;3.65;0.65;;;;;;;;;;5076567;28;20447;-68
2021/09/20 14:44:17;;;;;;;2.33;0.45;;;;;;;;;;5087225;28;20036;-69
2021/09/20 14:46:44;;;;;;;5.03;0.80;;;;;;;;;;5080834;28;20043;-68
2021/09/20 14:49:11;;;;;;;4.97;0.73;;;;;;;;;;5082621;28;20047;-68